createdAt,value
2022-08-02T00:02:39.675Z,81.70
2022-08-02T00:05:24.800Z,81.70
2022-08-02T00:08:10.107Z,82.10
2022-08-02T00:10:55.803Z,81.90
2022-08-02T00:13:41.204Z,81.80
2022-08-02T00:16:38.039Z,83.00
2022-08-02T00:19:24.084Z,83.40
2022-08-02T00:22:09.682Z,83.60
2022-08-02T00:24:55.413Z,83.70
2022-08-02T00:27:40.925Z,83.50
2022-08-02T00:30:26.323Z,82.90
2022-08-02T00:33:11.796Z,82.90
2022-08-02T00:35:57.138Z,83.00
2022-08-02T00:38:43.076Z,82.90
2022-08-02T00:41:28.443Z,83.50
2022-08-02T00:44:18.107Z,82.80
2022-08-02T00:47:03.535Z,83.60
2022-08-02T00:49:48.745Z,83.50
2022-08-02T00:52:34.267Z,83.90
2022-08-02T00:55:30.901Z,83.90
2022-08-02T00:58:16.778Z,84.20
2022-08-02T01:01:02.299Z,84.00
2022-08-02T01:03:49.068Z,84.00
2022-08-02T01:06:34.567Z,84.10
2022-08-02T01:09:19.848Z,84.70
2022-08-02T01:12:05.623Z,84.70
2022-08-02T01:14:52.162Z,85.10
2022-08-02T01:17:47.637Z,84.40
2022-08-02T01:20:51.462Z,84.40
2022-08-02T01:24:12.467Z,84.50
2022-08-02T01:27:07.057Z,83.70
2022-08-02T01:29:56.493Z,84.70
2022-08-02T01:32:52.104Z,85.60
2022-08-02T01:35:47.361Z,85.70
2022-08-02T01:38:41.997Z,85.20
2022-08-02T01:41:28.160Z,85.30
2022-08-02T01:44:15.383Z,85.40
2022-08-02T01:47:04.945Z,85.60
2022-08-02T01:49:54.244Z,85.40
2022-08-02T01:52:53.126Z,85.80
2022-08-02T01:55:58.088Z,86.50
2022-08-02T01:58:45.794Z,86.30
2022-08-02T02:01:34.716Z,86.40
2022-08-02T02:04:21.125Z,86.60
2022-08-02T02:07:07.891Z,85.40
2022-08-02T02:09:55.530Z,85.70
2022-08-02T02:12:42.755Z,86.10
2022-08-02T02:15:29.588Z,86.40
2022-08-02T02:18:20.411Z,87.00
2022-08-02T02:21:05.543Z,87.10
2022-08-02T02:23:51.143Z,86.30
2022-08-02T02:26:38.407Z,86.30
2022-08-02T02:29:31.365Z,87.60
2022-08-02T02:32:18.499Z,88.60
2022-08-02T02:35:05.219Z,87.30
2022-08-02T02:37:52.318Z,87.40
2022-08-02T02:40:39.096Z,88.30
2022-08-02T02:43:28.025Z,88.90
2022-08-02T02:46:13.613Z,88.20
2022-08-02T02:49:00.431Z,89.40
2022-08-02T02:51:46.382Z,89.50
2022-08-02T02:54:35.448Z,89.50
2022-08-02T02:57:21.949Z,89.60
2022-08-02T03:00:11.048Z,88.50
2022-08-02T03:02:57.002Z,88.30
2022-08-02T03:05:42.318Z,88.70
2022-08-02T03:08:28.370Z,87.70
2022-08-02T03:11:14.272Z,88.60
2022-08-02T03:14:01.921Z,88.20
2022-08-02T03:16:52.781Z,89.20
2022-08-02T03:19:38.059Z,89.20
2022-08-02T03:22:23.415Z,89.20
2022-08-02T03:25:10.170Z,89.10
2022-08-02T03:27:55.386Z,89.70
2022-08-02T03:30:40.726Z,90.10
2022-08-02T03:33:27.114Z,90.00
2022-08-02T03:36:16.502Z,90.10
2022-08-02T03:39:02.431Z,90.10
2022-08-02T03:41:49.686Z,90.20
2022-08-02T03:44:35.462Z,90.10
2022-08-02T03:47:22.143Z,90.20
2022-08-02T03:50:13.696Z,90.20
2022-08-02T03:53:00.097Z,89.80
2022-08-02T03:55:45.390Z,89.70
2022-08-02T03:58:31.218Z,89.90
2022-08-02T04:01:16.879Z,89.50
2022-08-02T04:04:02.410Z,89.80
2022-08-02T04:06:47.783Z,90.20
2022-08-02T04:09:32.975Z,90.30
2022-08-02T04:12:18.403Z,90.40
2022-08-02T04:15:05.642Z,90.30
2022-08-02T04:17:57.271Z,90.00
2022-08-02T04:20:44.254Z,90.20
2022-08-02T04:23:31.847Z,90.30
2022-08-02T04:26:26.793Z,90.50
2022-08-02T04:29:14.930Z,89.90
2022-08-02T04:32:00.926Z,89.20
2022-08-02T04:35:05.026Z,90.30
2022-08-02T04:38:08.352Z,90.40
2022-08-02T04:40:55.848Z,90.70
2022-08-02T04:43:40.976Z,90.80
2022-08-02T04:46:26.732Z,90.60
2022-08-02T04:49:12.764Z,90.60
2022-08-02T04:51:57.943Z,90.80
2022-08-02T04:54:43.370Z,91.10
2022-08-02T04:57:52.388Z,91.30
2022-08-02T05:00:38.407Z,91.10
2022-08-02T05:03:23.654Z,91.10
2022-08-02T05:06:19.333Z,90.90
2022-08-02T05:09:05.323Z,91.40
2022-08-02T05:11:53.286Z,91.20
2022-08-02T05:14:40.369Z,91.30
2022-08-02T05:17:25.755Z,91.90
2022-08-02T05:20:13.672Z,91.90
2022-08-02T05:22:59.002Z,91.90
2022-08-02T05:25:44.307Z,91.70
2022-08-02T05:28:29.666Z,91.70
2022-08-02T05:31:17.098Z,91.40
2022-08-02T05:34:02.626Z,92.30
2022-08-02T05:36:47.836Z,92.40
2022-08-02T05:39:33.338Z,91.60
2022-08-02T05:42:18.674Z,91.70
2022-08-02T05:45:04.961Z,91.50
2022-08-02T05:47:50.885Z,91.70
2022-08-02T05:50:39.190Z,92.10
2022-08-02T05:53:36.068Z,92.00
2022-08-02T05:56:38.740Z,92.20
2022-08-02T05:59:35.348Z,92.00
2022-08-02T06:02:31.022Z,92.00
2022-08-02T06:05:20.940Z,92.10
2022-08-02T06:08:10.124Z,92.00
2022-08-02T06:10:57.054Z,91.80
2022-08-02T06:13:42.932Z,92.10
2022-08-02T06:16:32.669Z,91.70
2022-08-02T06:19:20.156Z,91.90
2022-08-02T06:22:40.290Z,91.00
2022-08-02T06:25:49.952Z,91.20
2022-08-02T06:28:31.030Z,91.30
2022-08-02T06:31:16.687Z,91.80
2022-08-02T06:34:02.143Z,92.20
2022-08-02T06:37:08.971Z,91.70
2022-08-02T06:40:07.099Z,91.60
2022-08-02T06:43:11.870Z,91.30
2022-08-02T06:47:10.342Z,91.30
2022-08-02T06:49:04.059Z,90.70
2022-08-02T06:51:49.294Z,91.70
2022-08-02T06:54:36.103Z,91.80
2022-08-02T06:57:21.268Z,91.20
2022-08-02T07:00:09.571Z,91.70
2022-08-02T07:02:54.651Z,92.00
2022-08-02T07:05:42.127Z,91.80
2022-08-02T07:08:28.305Z,91.70
2022-08-02T07:11:13.399Z,92.00
2022-08-02T07:13:58.742Z,91.60
2022-08-02T07:16:44.100Z,91.60
2022-08-02T07:19:37.813Z,92.00
2022-08-02T07:22:24.731Z,91.80
2022-08-02T07:25:10.544Z,92.00
2022-08-02T07:27:55.970Z,92.00
2022-08-02T07:30:42.752Z,91.90
2022-08-02T07:33:37.505Z,91.80
2022-08-02T07:36:24.569Z,91.90
2022-08-02T07:39:10.949Z,91.40
2022-08-02T07:41:56.929Z,91.20
2022-08-02T07:44:42.092Z,91.10
2022-08-02T07:47:27.456Z,91.00
2022-08-02T07:50:15.200Z,90.90
2022-08-02T07:53:00.518Z,91.00
2022-08-02T07:55:45.555Z,90.60
2022-08-02T07:58:30.850Z,90.40
2022-08-02T08:01:16.997Z,90.00
2022-08-02T08:04:02.670Z,90.10
2022-08-02T08:06:52.619Z,90.00
2022-08-02T08:09:41.659Z,89.60
2022-08-02T08:12:27.365Z,88.00
2022-08-02T08:15:12.721Z,88.00
2022-08-02T08:17:58.514Z,87.50
2022-08-02T08:20:43.631Z,87.20
2022-08-02T08:23:29.113Z,86.40
2022-08-02T08:26:16.104Z,86.30
2022-08-02T08:29:01.926Z,85.00
2022-08-02T08:31:47.599Z,84.90
2022-08-02T08:34:34.845Z,85.10
2022-08-02T08:37:20.507Z,84.30
2022-08-02T08:40:08.214Z,83.00
2022-08-02T08:42:53.395Z,82.20
2022-08-02T08:45:38.860Z,81.90
2022-08-02T08:48:31.151Z,81.90
2022-08-02T08:51:21.469Z,81.40
2022-08-02T08:54:09.541Z,80.70
2022-08-02T08:56:55.866Z,81.30
2022-08-02T08:59:41.918Z,79.70
2022-08-02T09:02:28.407Z,77.70
2022-08-02T09:05:16.972Z,77.40
2022-08-02T09:08:02.935Z,76.40
2022-08-02T09:10:48.946Z,74.40
2022-08-02T09:13:45.264Z,73.70
2022-08-02T09:16:40.438Z,73.50
2022-08-02T09:19:27.029Z,74.10
2022-08-02T09:22:15.184Z,73.20
2022-08-02T09:25:01.696Z,72.90
2022-08-02T09:27:48.444Z,73.30
2022-08-02T09:30:43.016Z,73.80
2022-08-02T09:33:28.935Z,71.70
2022-08-02T09:36:16.107Z,70.80
2022-08-02T09:39:04.376Z,70.20
2022-08-02T09:41:49.612Z,70.90
2022-08-02T09:44:35.264Z,69.90
2022-08-02T09:47:20.943Z,70.30
2022-08-02T09:50:06.785Z,69.00
2022-08-02T09:52:54.710Z,70.50
2022-08-02T09:55:41.992Z,70.60
2022-08-02T09:58:27.714Z,70.30
2022-08-02T10:01:13.657Z,70.80
2022-08-02T10:04:06.441Z,71.40
2022-08-02T10:06:54.205Z,71.00
2022-08-02T10:09:46.405Z,70.50
2022-08-02T10:12:32.994Z,71.30
2022-08-02T10:15:18.737Z,71.50
2022-08-02T10:18:28.752Z,71.30
2022-08-02T10:21:18.875Z,71.30
2022-08-02T10:24:10.955Z,72.10
2022-08-02T10:26:59.071Z,72.70
2022-08-02T10:29:54.347Z,73.40
2022-08-02T10:32:45.963Z,71.30
2022-08-02T10:35:35.692Z,67.70
2022-08-02T10:38:21.500Z,68.50
2022-08-02T10:41:08.043Z,67.40
2022-08-02T10:43:54.076Z,66.90
2022-08-02T10:46:39.308Z,67.10
2022-08-02T10:49:39.301Z,67.40
2022-08-02T10:52:29.894Z,67.00
2022-08-02T10:55:22.520Z,66.90
2022-08-02T10:58:25.897Z,66.20
2022-08-02T11:01:38.634Z,66.90
2022-08-02T11:04:25.309Z,66.50
2022-08-02T11:07:31.156Z,67.20
2022-08-02T11:10:25.767Z,66.20
2022-08-02T11:13:16.543Z,65.40
2022-08-02T11:16:11.604Z,65.40
2022-08-02T11:18:57.272Z,63.50
2022-08-02T11:21:59.949Z,63.30
2022-08-02T11:24:47.210Z,63.40
2022-08-02T11:27:32.898Z,64.10
2022-08-02T11:30:19.366Z,63.30
2022-08-02T11:33:12.184Z,63.90
2022-08-02T11:36:06.943Z,63.70
2022-08-02T11:39:12.767Z,62.30
2022-08-02T11:42:01.579Z,62.00
2022-08-02T11:44:49.167Z,61.40
2022-08-02T11:47:45.064Z,61.40
2022-08-02T11:50:30.735Z,62.20
2022-08-02T11:53:16.490Z,61.70
2022-08-02T11:56:01.894Z,60.10
2022-08-02T11:59:02.897Z,60.60
2022-08-02T12:01:48.288Z,60.70
2022-08-02T12:04:34.066Z,60.20
2022-08-02T12:07:34.807Z,61.50
2022-08-02T12:10:24.002Z,60.80
2022-08-02T12:13:09.304Z,60.80
2022-08-02T12:16:14.660Z,59.00
2022-08-02T12:19:18.313Z,56.80
2022-08-02T12:22:19.728Z,56.40
2022-08-02T12:25:33.953Z,56.60
2022-08-02T12:28:25.219Z,56.20
2022-08-02T12:31:15.332Z,55.00
2022-08-02T12:34:15.063Z,56.40
2022-08-02T12:37:09.181Z,54.10
2022-08-02T12:39:54.767Z,54.30
2022-08-02T12:42:52.334Z,52.60
2022-08-02T12:45:55.298Z,52.50
2022-08-02T12:48:56.607Z,52.30
2022-08-02T12:51:57.705Z,51.20
2022-08-02T12:54:48.821Z,51.60
2022-08-02T12:57:55.029Z,50.00
2022-08-02T13:00:40.774Z,50.80
2022-08-02T13:04:08.959Z,49.90
2022-08-02T13:06:42.983Z,49.00
2022-08-02T13:09:40.620Z,46.80
2022-08-02T13:12:25.954Z,46.90
2022-08-02T13:15:12.363Z,46.00
2022-08-02T13:18:18.320Z,47.30
2022-08-02T13:21:05.231Z,48.70
2022-08-02T13:23:54.571Z,48.10
2022-08-02T13:26:40.740Z,47.70
2022-08-02T13:29:26.144Z,48.70
2022-08-02T13:32:11.794Z,48.50
2022-08-02T13:34:58.403Z,48.90
2022-08-02T13:37:44.684Z,48.00
2022-08-02T13:40:48.995Z,47.40
2022-08-02T13:43:51.860Z,47.70
2022-08-02T13:46:44.967Z,47.30
2022-08-02T13:49:33.530Z,46.50
2022-08-02T13:52:37.163Z,46.40
2022-08-02T13:55:22.499Z,47.20
2022-08-02T13:58:07.952Z,45.90
2022-08-02T14:00:53.218Z,46.80
2022-08-02T14:04:07.601Z,45.90
2022-08-02T14:06:44.472Z,47.10
2022-08-02T14:09:32.458Z,46.60
2022-08-02T14:12:18.754Z,46.10
2022-08-02T14:15:04.488Z,45.50
2022-08-02T14:17:49.762Z,46.20
2022-08-02T14:20:38.287Z,45.90
2022-08-02T14:23:46.895Z,45.10
2022-08-02T14:26:29.497Z,45.00
2022-08-02T14:29:16.221Z,45.30
2022-08-02T14:32:01.969Z,45.50
2022-08-02T14:34:47.342Z,45.10
2022-08-02T14:37:34.826Z,45.00
2022-08-02T14:40:31.403Z,44.30
2022-08-02T14:43:35.926Z,43.70
2022-08-02T14:46:21.440Z,43.80
2022-08-02T14:49:07.838Z,44.30
2022-08-02T14:51:56.841Z,44.30
2022-08-02T14:54:43.117Z,44.40
2022-08-02T14:57:28.321Z,44.20
2022-08-02T15:00:14.260Z,46.60
2022-08-02T15:02:59.888Z,45.90
2022-08-02T15:05:45.143Z,45.90
2022-08-02T15:08:30.543Z,45.30
2022-08-02T15:11:15.990Z,45.30
2022-08-02T15:14:01.278Z,45.30
2022-08-02T15:16:55.952Z,44.80
2022-08-02T15:19:57.819Z,44.60
2022-08-02T15:22:46.434Z,44.90
2022-08-02T15:25:41.111Z,45.30
2022-08-02T15:28:29.268Z,44.90
2022-08-02T15:31:32.757Z,43.40
2022-08-02T15:34:19.002Z,44.50
2022-08-02T15:37:04.397Z,44.80
2022-08-02T15:39:49.770Z,44.20
2022-08-02T15:42:35.585Z,43.90
2022-08-02T15:45:21.150Z,44.70
2022-08-02T15:48:07.401Z,44.10
2022-08-02T15:50:52.931Z,44.50
2022-08-02T15:53:38.580Z,44.40
2022-08-02T15:56:24.552Z,44.40
2022-08-02T15:59:09.968Z,44.60
2022-08-02T16:01:55.427Z,44.50
2022-08-02T16:04:40.756Z,45.00
2022-08-02T16:07:26.074Z,44.90
2022-08-02T16:10:11.603Z,45.20
2022-08-02T16:13:16.985Z,45.20
2022-08-02T16:16:02.042Z,45.10
2022-08-02T16:18:47.852Z,45.00
2022-08-02T16:21:33.147Z,45.20
2022-08-02T16:24:19.795Z,44.50
2022-08-02T16:27:05.204Z,45.70
2022-08-02T16:29:50.654Z,45.40
2022-08-02T16:32:36.100Z,45.20
2022-08-02T16:35:21.521Z,44.80
2022-08-02T16:38:06.990Z,44.70
2022-08-02T16:40:52.932Z,45.40
2022-08-02T16:43:38.252Z,45.00
2022-08-02T16:46:23.843Z,45.20
2022-08-02T16:50:03.968Z,45.00
2022-08-02T16:52:14.747Z,45.30
2022-08-02T16:55:00.288Z,45.50
2022-08-02T16:57:50.253Z,45.50
2022-08-02T17:00:36.097Z,46.00
2022-08-02T17:03:21.632Z,45.50
2022-08-02T17:06:07.223Z,46.50
2022-08-02T17:08:56.875Z,46.50
2022-08-02T17:11:46.769Z,45.90
2022-08-02T17:14:36.608Z,46.40
2022-08-02T17:17:43.271Z,46.00
2022-08-02T17:20:29.833Z,46.30
2022-08-02T17:23:16.443Z,46.10
2022-08-02T17:26:03.455Z,46.20
2022-08-02T17:29:15.757Z,46.20
2022-08-02T17:32:05.471Z,46.10
2022-08-02T17:34:59.976Z,46.60
2022-08-02T17:37:54.836Z,46.90
2022-08-02T17:40:45.767Z,47.60
2022-08-02T17:43:31.087Z,47.00
2022-08-02T17:46:17.775Z,47.50
2022-08-02T17:49:20.693Z,47.80
2022-08-02T17:52:48.680Z,47.30
2022-08-02T17:55:13.622Z,47.60
2022-08-02T17:58:18.096Z,48.20
2022-08-02T18:01:23.672Z,48.20
2022-08-02T18:04:09.926Z,49.10
2022-08-02T18:07:03.924Z,49.90
2022-08-02T18:09:50.002Z,50.50
2022-08-02T18:12:40.234Z,50.50
2022-08-02T18:15:26.444Z,51.20
2022-08-02T18:18:16.837Z,51.40
2022-08-02T18:21:16.292Z,52.00
2022-08-02T18:24:08.712Z,52.40
2022-08-02T18:26:56.696Z,52.80
2022-08-02T18:29:42.216Z,53.00
2022-08-02T18:33:55.938Z,52.50
2022-08-02T18:35:32.733Z,53.70
2022-08-02T18:38:20.826Z,54.20
2022-08-02T18:41:12.610Z,54.50
2022-08-02T18:43:58.488Z,54.50
2022-08-02T18:46:45.424Z,54.50
2022-08-02T18:49:45.947Z,54.70
2022-08-02T18:52:32.150Z,54.50
2022-08-02T18:56:03.202Z,54.00
2022-08-02T18:58:24.930Z,55.00
2022-08-02T19:01:14.991Z,54.10
2022-08-02T19:04:08.641Z,54.10
2022-08-02T19:06:53.908Z,54.40
2022-08-02T19:09:39.832Z,54.40
2022-08-02T19:15:32.123Z,54.50
2022-08-02T19:18:17.379Z,55.60
2022-08-02T19:21:05.523Z,54.90
2022-08-02T19:23:54.822Z,54.90
2022-08-02T19:26:41.305Z,54.80
2022-08-02T19:29:48.484Z,54.70
2022-08-02T19:32:41.247Z,55.30
2022-08-02T19:35:37.672Z,55.30
2022-08-02T19:38:44.333Z,55.50
2022-08-02T19:41:29.524Z,55.60
2022-08-02T19:44:29.874Z,55.90
2022-08-02T19:47:19.443Z,55.80
2022-08-02T19:50:05.270Z,55.50
2022-08-02T19:52:51.004Z,55.70
2022-08-02T19:55:59.378Z,55.20
2022-08-02T19:58:44.985Z,54.40
2022-08-02T20:01:38.877Z,56.10
2022-08-02T20:04:25.813Z,56.10
2022-08-02T20:07:11.180Z,55.50
2022-08-02T20:09:56.576Z,55.00
2022-08-02T20:12:43.107Z,55.70
2022-08-02T20:15:56.212Z,55.40
2022-08-02T20:18:35.514Z,56.80
2022-08-02T20:21:35.844Z,57.40
2022-08-02T20:24:22.522Z,57.70
2022-08-02T20:27:16.585Z,57.90
2022-08-02T20:30:02.982Z,58.50
2022-08-02T20:32:52.667Z,58.40
2022-08-02T20:35:39.557Z,58.20
2022-08-02T20:38:31.828Z,58.90
2022-08-02T20:41:21.892Z,58.80
2022-08-02T20:44:15.735Z,59.10
2022-08-02T20:47:13.108Z,58.90
2022-08-02T20:50:17.100Z,58.80
2022-08-02T20:53:04.470Z,59.40
2022-08-02T20:55:52.976Z,59.90
2022-08-02T20:58:38.204Z,59.90
2022-08-02T21:01:25.176Z,59.80
2022-08-02T21:04:22.220Z,59.90
2022-08-02T21:07:12.877Z,60.00
2022-08-02T21:09:58.380Z,59.60
2022-08-02T21:12:45.364Z,59.30
2022-08-02T21:15:31.433Z,59.90
2022-08-02T21:18:23.888Z,60.20
2022-08-02T21:21:18.963Z,60.60
2022-08-02T21:24:04.829Z,60.50
2022-08-02T21:26:50.283Z,60.80
2022-08-02T21:29:37.696Z,60.40
2022-08-02T21:32:23.310Z,60.40
2022-08-02T21:35:11.412Z,60.70
2022-08-02T21:37:58.322Z,60.80
2022-08-02T21:40:43.619Z,60.30
2022-08-02T21:43:38.502Z,60.90
2022-08-02T21:46:51.967Z,61.10
2022-08-02T21:50:09.750Z,60.90
2022-08-02T21:52:42.423Z,60.70
2022-08-02T21:56:02.812Z,61.00
2022-08-02T21:58:42.752Z,60.60
2022-08-02T22:01:28.451Z,60.90
2022-08-02T22:04:15.594Z,61.00
2022-08-02T22:07:01.427Z,61.40
2022-08-02T22:09:47.067Z,61.00
2022-08-02T22:12:32.297Z,61.70
2022-08-02T22:15:17.825Z,61.80
2022-08-02T22:18:14.390Z,61.70
2022-08-02T22:21:00.331Z,61.30
2022-08-02T22:23:50.273Z,61.60
2022-08-02T22:26:36.231Z,61.40
2022-08-02T22:29:22.566Z,62.00
2022-08-02T22:32:08.615Z,62.10
2022-08-02T22:34:53.979Z,61.90
2022-08-02T22:38:16.080Z,61.20
2022-08-02T22:40:49.508Z,61.70
2022-08-02T22:43:34.536Z,62.00
2022-08-02T22:46:26.462Z,62.10
2022-08-02T22:49:17.638Z,61.30
2022-08-02T22:52:17.099Z,61.50
2022-08-02T22:55:06.203Z,61.50
2022-08-02T22:57:56.967Z,61.70
2022-08-02T22:59:00.572Z,54.50
2022-08-02T23:00:42.521Z,62.30
2022-08-02T23:03:28.304Z,63.50
2022-08-02T23:06:13.282Z,63.10
2022-08-02T23:08:58.793Z,63.40
2022-08-02T23:11:44.216Z,63.50
2022-08-02T23:14:29.616Z,63.60
2022-08-02T23:17:33.415Z,63.50
2022-08-02T23:20:18.821Z,63.50
2022-08-02T23:23:04.185Z,63.60
2022-08-02T23:25:57.132Z,63.80
2022-08-02T23:28:42.771Z,63.90
2022-08-02T23:31:37.442Z,63.90
2022-08-02T23:34:23.249Z,63.70
2022-08-02T23:37:08.559Z,63.80
2022-08-02T23:39:54.045Z,63.90
2022-08-02T23:42:39.187Z,63.80
2022-08-02T23:45:24.537Z,63.40
2022-08-02T23:48:22.871Z,63.60
2022-08-02T23:51:08.307Z,63.70
2022-08-02T23:53:53.587Z,63.50
2022-08-02T23:56:39.561Z,63.90
2022-08-02T23:59:25.254Z,64.50
